Time;durP1;ratioP1;P1;durP2;ratioP2;P2;SDS_P1;SDS_P2;PMS_P1;PMS_P2;Temp;Humidity;BMP_temperature;BMP_pressure;BME280_temperature;BME280_humidity;BME280_pressure;Samples;Min_cycle;Max_cycle;Signal;HPM_P1;HPM_P2
2021/01/27 00:02:01;;;;;;;17.83;8.27;;;;;;;-1.07;100.00;97726.31;5039719;28;20048;-81
2021/01/27 00:04:28;;;;;;;17.38;8.07;;;;;;;-1.04;100.00;97727.69;5056565;28;20044;-80
2021/01/27 00:06:54;;;;;;;18.00;7.85;;;;;;;-0.96;100.00;97728.09;5064363;28;20069;-80
2021/01/27 00:09:20;;;;;;;20.73;8.75;;;;;;;-1.01;100.00;97724.56;5023383;28;20098;-80
2021/01/27 00:11:47;;;;;;;20.02;7.95;;;;;;;-1.01;100.00;97717.41;5073805;28;20048;-80
2021/01/27 00:14:13;;;;;;;17.70;7.97;;;;;;;-0.99;100.00;97717.94;5055876;28;20064;-80
2021/01/27 00:16:39;;;;;;;18.17;7.80;;;;;;;-0.94;100.00;97710.06;5038601;28;20055;-81
2021/01/27 00:19:06;;;;;;;14.52;7.90;;;;;;;-0.93;100.00;97721.50;5055700;28;20063;-81
2021/01/27 00:21:32;;;;;;;16.88;7.88;;;;;;;-0.92;100.00;97717.78;5038876;28;20127;-80
2021/01/27 00:23:58;;;;;;;18.90;8.05;;;;;;;-0.93;100.00;97709.00;5054624;28;20464;-80
2021/01/27 00:26:24;;;;;;;15.93;7.40;;;;;;;-0.91;100.00;97706.94;5037431;28;20045;-80
2021/01/27 00:28:51;;;;;;;14.50;6.95;;;;;;;-0.89;100.00;97704.84;5038124;28;20040;-80
2021/01/27 00:31:17;;;;;;;13.00;6.70;;;;;;;-0.92;100.00;97707.97;5037772;28;20044;-79
2021/01/27 00:33:43;;;;;;;15.07;6.85;;;;;;;-0.97;100.00;97707.06;5055303;28;20499;-81
2021/01/27 00:36:10;;;;;;;16.10;6.85;;;;;;;-1.01;100.00;97692.69;5054613;28;20083;-79
2021/01/27 00:38:36;;;;;;;13.82;7.30;;;;;;;-0.99;100.00;97706.50;5052349;28;20052;-80
2021/01/27 00:41:02;;;;;;;14.10;6.45;;;;;;;-1.03;100.00;97706.19;5074398;28;20388;-80
2021/01/27 00:43:28;;;;;;;17.05;7.13;;;;;;;-1.03;100.00;97708.84;5058218;28;20075;-80
2021/01/27 00:45:55;;;;;;;12.63;7.00;;;;;;;-0.97;100.00;97718.50;5039375;28;20069;-80
2021/01/27 00:48:22;;;;;;;17.23;7.50;;;;;;;-1.00;100.00;97719.00;5074311;28;20059;-79
2021/01/27 00:50:48;;;;;;;15.20;7.43;;;;;;;-0.99;100.00;97717.16;5039717;28;20056;-80
2021/01/27 00:53:15;;;;;;;16.90;7.50;;;;;;;-1.03;100.00;97716.03;5056488;28;20044;-80
2021/01/27 00:55:41;;;;;;;12.80;7.28;;;;;;;-0.99;100.00;97709.16;5074045;28;20047;-79
2021/01/27 00:58:09;;;;;;;13.85;6.95;;;;;;;-0.97;100.00;97715.03;5057062;28;20092;-80
2021/01/27 01:00:38;;;;;;;16.70;7.13;;;;;;;-1.00;100.00;97713.69;5057195;28;20040;-80
2021/01/27 01:03:07;;;;;;;15.02;7.72;;;;;;;-1.00;100.00;97719.00;5057409;28;20048;-79
2021/01/27 01:05:40;;;;;;;13.60;6.80;;;;;;;-1.00;100.00;97718.19;5075025;28;20045;-80
2021/01/27 01:08:11;;;;;;;12.77;6.32;;;;;;;-0.98;100.00;97713.44;5074804;28;20059;-80
2021/01/27 01:10:43;;;;;;;12.68;6.35;;;;;;;-0.98;100.00;97710.78;5056864;28;20040;-80
2021/01/27 01:13:16;;;;;;;11.77;6.13;;;;;;;-1.03;100.00;97713.38;5040731;28;20524;-80
2021/01/27 01:15:42;;;;;;;12.02;5.88;;;;;;;-1.06;100.00;97709.34;5074540;28;20045;-80
2021/01/27 01:18:10;;;;;;;15.23;6.60;;;;;;;-1.02;100.00;97705.16;5075195;28;20055;-80
2021/01/27 01:20:36;;;;;;;12.32;6.38;;;;;;;-1.06;100.00;97697.91;5075686;28;20041;-79
2021/01/27 01:23:03;;;;;;;13.15;6.30;;;;;;;-1.08;100.00;97700.78;5057012;28;20613;-80
2021/01/27 01:25:35;;;;;;;14.65;6.70;;;;;;;-1.01;100.00;97704.13;5057385;28;20471;-80
2021/01/27 01:28:03;;;;;;;14.00;6.45;;;;;;;-0.96;100.00;97690.91;5074937;28;20415;-80
2021/01/27 01:30:34;;;;;;;12.70;6.63;;;;;;;-1.01;100.00;97698.00;5056486;28;20067;-79
2021/01/27 01:33:04;;;;;;;16.70;6.50;;;;;;;-0.92;100.00;97704.50;5075450;28;20048;-80
2021/01/27 01:35:31;;;;;;;14.18;6.65;;;;;;;-0.94;100.00;97698.63;5075229;28;20045;-80
2021/01/27 01:37:57;;;;;;;16.48;7.03;;;;;;;-0.92;100.00;97701.84;5078181;28;20041;-80
2021/01/27 01:40:26;;;;;;;16.85;6.88;;;;;;;-0.94;100.00;97699.44;5079117;28;20041;-81
2021/01/27 01:43:01;;;;;;;15.85;7.03;;;;;;;-0.99;100.00;97704.69;5060602;28;20063;-80
2021/01/27 01:45:39;;;;;;;15.20;7.35;;;;;;;-1.02;100.00;97707.81;5062332;28;20049;-81
2021/01/27 01:48:17;;;;;;;15.18;7.40;;;;;;;-1.04;100.00;97701.13;5061426;28;20045;-80
2021/01/27 01:50:44;;;;;;;15.02;6.90;;;;;;;-1.14;100.00;97690.31;5075803;28;20078;-80
2021/01/27 01:53:13;;;;;;;15.07;6.75;;;;;;;-1.09;100.00;97695.72;5076668;28;20056;-80
2021/01/27 01:55:41;;;;;;;15.90;7.10;;;;;;;-1.07;100.00;97691.78;5055854;28;20081;-79
2021/01/27 01:58:09;;;;;;;13.48;6.65;;;;;;;-1.07;100.00;97681.16;5041373;28;20437;-79
2021/01/27 02:00:38;;;;;;;14.60;6.53;;;;;;;-1.08;100.00;97694.66;5076536;28;20036;-79
2021/01/27 02:03:09;;;;;;;14.07;6.78;;;;;;;-1.14;100.00;97688.47;5060476;28;20064;-78
2021/01/27 02:05:36;;;;;;;13.02;6.80;;;;;;;-1.11;100.00;97690.63;5059443;28;20127;-79
2021/01/27 02:08:03;;;;;;;14.55;6.82;;;;;;;-1.13;100.00;97694.56;5073038;28;20051;-79
2021/01/27 02:10:29;;;;;;;15.73;6.38;;;;;;;-1.15;100.00;97692.16;5058648;28;20043;-80
2021/01/27 02:13:26;;;;;;;16.42;7.00;;;;;;;-1.19;100.00;97680.41;5057154;28;20278;-81
2021/01/27 02:16:15;;;;;;;14.15;5.97;;;;;;;-1.19;100.00;97690.22;5088323;28;20055;-81
2021/01/27 02:18:51;;;;;;;12.77;5.85;;;;;;;-1.20;100.00;97685.94;5081882;28;20164;-81
2021/01/27 02:21:23;;;;;;;12.65;6.22;;;;;;;-1.14;100.00;97685.00;5078010;28;20040;-80
2021/01/27 02:24:08;;;;;;;12.32;6.10;;;;;;;-1.10;100.00;97678.97;5094425;28;20048;-80
2021/01/27 02:27:03;;;;;;;12.20;5.82;;;;;;;-1.08;100.00;97684.84;5103504;28;20044;-80
2021/01/27 02:29:35;;;;;;;13.68;6.00;;;;;;;-1.00;100.00;97679.13;5097855;28;20293;-80
2021/01/27 02:32:19;;;;;;;12.93;5.78;;;;;;;-1.01;100.00;97682.84;5093828;28;20427;-80
2021/01/27 02:35:01;;;;;;;13.55;6.10;;;;;;;-0.97;100.00;97681.31;5093492;28;20040;-80
2021/01/27 02:37:45;;;;;;;13.35;6.20;;;;;;;-0.92;100.00;97675.28;5058182;28;20052;-79
2021/01/27 02:40:17;;;;;;;11.23;6.00;;;;;;;-0.87;100.00;97681.50;5092916;28;20047;-80
2021/01/27 02:42:53;;;;;;;12.98;6.03;;;;;;;-1.04;100.00;97646.16;5093725;28;20054;-80
2021/01/27 02:45:28;;;;;;;14.15;5.72;;;;;;;-0.96;100.00;97667.00;5075976;28;20055;-80
2021/01/27 02:48:13;;;;;;;13.20;6.07;;;;;;;-0.98;100.00;97668.28;5077516;28;20483;-80
2021/01/27 02:50:58;;;;;;;15.27;6.43;;;;;;;-0.97;100.00;97667.22;5076946;28;20050;-80
2021/01/27 02:53:36;;;;;;;8.83;4.70;;;;;;;-0.96;100.00;97671.50;5095297;28;20040;-79
2021/01/27 02:56:28;;;;;;;13.18;6.20;;;;;;;-0.91;100.00;97660.97;5093321;28;20305;-80
2021/01/27 02:59:00;;;;;;;15.93;6.78;;;;;;;-0.94;100.00;97669.41;5075080;28;20039;-80
2021/01/27 03:01:38;;;;;;;12.77;5.80;;;;;;;-0.90;100.00;97674.00;5091774;28;20047;-80
2021/01/27 03:04:13;;;;;;;15.02;7.00;;;;;;;-0.91;100.00;97668.94;5058486;28;20090;-79
2021/01/27 03:06:41;;;;;;;13.00;6.57;;;;;;;-0.93;100.00;97671.03;5058281;28;20234;-79
2021/01/27 03:09:13;;;;;;;12.73;6.45;;;;;;;-1.01;100.00;97666.91;5060898;28;20044;-80
2021/01/27 03:14:14;;;;;;;15.25;7.13;;;;;;;-1.09;100.00;97672.63;4992406;28;20053;-81
2021/01/27 03:17:00;;;;;;;14.48;7.20;;;;;;;-1.15;100.00;97670.09;4993291;28;20039;-82
2021/01/27 03:19:44;;;;;;;12.27;6.68;;;;;;;-1.14;100.00;97656.59;4993974;28;20042;-81
2021/01/27 03:22:22;;;;;;;15.60;7.28;;;;;;;-1.14;100.00;97667.22;5002813;28;20110;-81
2021/01/27 03:24:58;;;;;;;17.23;7.50;;;;;;;-1.13;100.00;97658.19;5017518;28;20060;-81
2021/01/27 03:27:31;;;;;;;16.05;7.78;;;;;;;-1.05;100.00;97670.28;5015076;28;20515;-81
2021/01/27 03:29:59;;;;;;;14.15;7.72;;;;;;;-1.12;100.00;97670.44;4980066;28;20072;-81
2021/01/27 03:32:34;;;;;;;15.40;7.82;;;;;;;-1.08;100.00;97673.41;5014778;28;20117;-80
2021/01/27 03:35:11;;;;;;;18.90;8.07;;;;;;;-0.99;100.00;97666.66;5014598;28;20229;-81
2021/01/27 03:37:46;;;;;;;16.05;7.78;;;;;;;-0.91;100.00;97669.75;5013206;28;20096;-81
2021/01/27 03:40:16;;;;;;;12.43;6.05;;;;;;;-0.88;100.00;97673.78;4997216;28;20044;-80
2021/01/27 03:42:54;;;;;;;14.88;7.45;;;;;;;-0.87;100.00;97675.38;4995057;28;20046;-81
2021/01/27 03:45:24;;;;;;;16.67;7.75;;;;;;;-0.81;100.00;97675.22;4994957;28;20045;-81
2021/01/27 03:48:08;;;;;;;17.30;8.13;;;;;;;-0.79;100.00;97670.47;4995040;28;20041;-81
2021/01/27 03:50:36;;;;;;;21.58;9.18;;;;;;;-0.79;100.00;97683.75;5002007;28;20069;-82
2021/01/27 03:53:12;;;;;;;17.00;8.90;;;;;;;-0.84;100.00;97673.03;5016375;28;20041;-82
2021/01/27 03:55:45;;;;;;;21.40;8.30;;;;;;;-0.92;100.00;97667.31;5015103;28;20052;-80
2021/01/27 03:58:21;;;;;;;18.05;8.10;;;;;;;-0.96;100.00;97667.00;5014074;28;20052;-80
2021/01/27 04:00:50;;;;;;;17.83;8.10;;;;;;;-0.97;100.00;97662.72;5020669;28;20124;-81
2021/01/27 04:03:22;;;;;;;15.20;8.07;;;;;;;-0.95;100.00;97665.13;5025593;28;20033;-82
2021/01/27 04:05:48;;;;;;;17.52;9.02;;;;;;;-0.90;100.00;97670.53;4993514;28;20148;-82
2021/01/27 04:08:15;;;;;;;19.70;10.18;;;;;;;-0.87;100.00;97660.22;4998709;28;20397;-82
2021/01/27 04:10:42;;;;;;;18.48;9.52;;;;;;;-0.80;100.00;97665.41;5015198;28;20049;-81
2021/01/27 04:13:09;;;;;;;15.88;8.73;;;;;;;-0.76;100.00;97670.00;5027530;28;20046;-82
2021/01/27 04:15:35;;;;;;;18.33;9.35;;;;;;;-0.74;100.00;97659.09;5017269;28;20084;-82
2021/01/27 04:18:02;;;;;;;18.63;9.75;;;;;;;-0.72;100.00;97664.97;5016621;28;20048;-82
2021/01/27 04:20:28;;;;;;;21.08;11.15;;;;;;;-0.76;100.00;97670.00;5035522;28;20052;-81
2021/01/27 04:22:55;;;;;;;22.42;11.40;;;;;;;-0.78;100.00;97664.13;5000475;28;20045;-81
2021/01/27 04:25:22;;;;;;;22.27;11.65;;;;;;;-0.84;100.00;97667.72;5032208;28;20056;-82
2021/01/27 04:27:49;;;;;;;21.35;10.52;;;;;;;-0.86;100.00;97675.13;5025331;28;20046;-80
2021/01/27 04:30:19;;;;;;;25.50;12.35;;;;;;;-0.86;100.00;97676.97;5012433;28;20038;-81
2021/01/27 04:32:45;;;;;;;26.23;12.45;;;;;;;-0.91;100.00;97674.25;4994501;28;20448;-80
2021/01/27 04:35:12;;;;;;;28.80;13.40;;;;;;;-0.90;100.00;97684.63;4995371;28;20065;-80
2021/01/27 04:37:38;;;;;;;27.80;13.20;;;;;;;-0.98;100.00;97665.63;5012743;28;20429;-80
2021/01/27 04:40:14;;;;;;;31.33;14.63;;;;;;;-0.98;100.00;97679.69;5013137;28;20045;-80
2021/01/27 04:42:41;;;;;;;32.38;14.50;;;;;;;-1.00;100.00;97667.69;5020473;28;20053;-82
2021/01/27 04:45:08;;;;;;;29.17;14.45;;;;;;;-1.01;100.00;97671.41;5034211;28;20092;-81
2021/01/27 04:47:46;;;;;;;27.50;13.02;;;;;;;-0.97;100.00;97672.53;5036240;28;20040;-81
2021/01/27 04:50:29;;;;;;;33.13;13.20;;;;;;;-1.01;100.00;97666.13;5036340;28;20030;-81
2021/01/27 04:53:06;;;;;;;30.58;12.57;;;;;;;-0.95;100.00;97667.78;5053245;28;20037;-80
2021/01/27 04:55:35;;;;;;;30.38;13.70;;;;;;;-0.95;100.00;97654.50;5052573;28;20032;-80
2021/01/27 04:58:10;;;;;;;30.65;13.90;;;;;;;-0.89;100.00;97665.00;5053256;28;20053;-80
2021/01/27 05:00:45;;;;;;;29.33;14.00;;;;;;;-0.81;100.00;97658.47;5035599;28;20049;-80
2021/01/27 05:03:39;;;;;;;31.25;14.32;;;;;;;-0.74;100.00;97648.47;5018956;28;20053;-79
2021/01/27 05:06:12;;;;;;;31.08;14.05;;;;;;;-0.72;100.00;97641.06;5031917;28;20048;-80
2021/01/27 05:08:47;;;;;;;30.17;14.60;;;;;;;-0.74;100.00;97629.88;5032415;28;20103;-81
2021/01/27 05:11:15;;;;;;;29.88;14.93;;;;;;;-0.68;100.00;97635.03;5031986;28;20053;-80
2021/01/27 05:13:48;;;;;;;29.45;15.05;;;;;;;-0.68;100.00;97627.06;5038033;28;20055;-79
2021/01/27 05:16:18;;;;;;;34.17;15.65;;;;;;;-0.66;100.00;97622.31;5038352;28;20044;-80
2021/01/27 05:18:47;;;;;;;33.00;14.73;;;;;;;-0.63;100.00;97624.47;5015545;28;20480;-82
2021/01/27 05:21:23;;;;;;;31.08;14.80;;;;;;;-0.62;100.00;97622.63;5033039;28;20045;-80
2021/01/27 05:23:51;;;;;;;29.40;14.38;;;;;;;-0.62;100.00;97619.97;5032815;28;20217;-80
2021/01/27 05:26:20;;;;;;;29.70;13.35;;;;;;;-0.57;100.00;97605.94;5032175;28;20038;-80
2021/01/27 05:28:59;;;;;;;28.13;12.93;;;;;;;-0.59;100.00;97603.50;5014664;28;20508;-79
2021/01/27 05:32:03;;;;;;;31.83;14.20;;;;;;;-0.59;100.00;97608.81;5001333;28;20050;-81
2021/01/27 05:34:43;;;;;;;29.40;14.13;;;;;;;-0.59;100.00;97595.53;5022831;28;20052;-81
2021/01/27 05:37:20;;;;;;;28.80;13.95;;;;;;;-0.60;100.00;97595.78;5002653;28;20452;-80
2021/01/27 05:39:49;;;;;;;31.10;14.98;;;;;;;-0.61;100.00;97589.66;5026502;28;20505;-80
2021/01/27 05:42:33;;;;;;;28.98;14.30;;;;;;;-0.56;100.00;97589.72;4996604;28;20513;-81
2021/01/27 05:45:38;;;;;;;32.45;14.05;;;;;;;-0.58;100.00;97597.16;5015211;28;20460;-81
2021/01/27 05:48:23;;;;;;;30.45;14.23;;;;;;;-0.63;100.00;97587.25;5013168;28;20504;-80
2021/01/27 05:50:52;;;;;;;29.30;14.75;;;;;;;-0.73;100.00;97578.34;5014109;28;20049;-81
2021/01/27 05:53:24;;;;;;;39.53;15.68;;;;;;;-0.68;100.00;97583.72;5013087;28;20243;-81
2021/01/27 05:56:15;;;;;;;32.47;15.52;;;;;;;-0.79;100.00;97582.78;5012694;28;20042;-80
2021/01/27 05:58:58;;;;;;;36.15;16.58;;;;;;;-0.77;100.00;97599.28;4995470;28;20121;-81
2021/01/27 06:01:52;;;;;;;37.70;16.27;;;;;;;-0.78;100.00;97594.22;4996512;28;20046;-81
2021/01/27 06:04:24;;;;;;;32.00;15.68;;;;;;;-0.82;100.00;97588.56;5014065;28;20493;-81
2021/01/27 06:06:51;;;;;;;32.67;16.08;;;;;;;-0.85;100.00;97593.59;5015535;28;20124;-81
2021/01/27 06:09:40;;;;;;;37.28;17.05;;;;;;;-0.84;100.00;97595.97;5020109;28;20408;-82
2021/01/27 06:12:25;;;;;;;31.63;16.05;;;;;;;-0.82;100.00;97601.84;5003177;28;20045;-82
2021/01/27 06:15:28;;;;;;;32.30;15.35;;;;;;;-0.79;100.00;97603.22;5016100;28;20064;-82
2021/01/27 06:17:54;;;;;;;34.47;15.68;;;;;;;-0.73;100.00;97616.34;5016055;28;20381;-82
2021/01/27 06:20:31;;;;;;;40.10;17.23;;;;;;;-0.73;100.00;97613.69;5016886;28;20054;-82
2021/01/27 06:23:09;;;;;;;36.28;17.50;;;;;;;-0.67;100.00;97615.38;5013416;28;20490;-81
2021/01/27 06:25:44;;;;;;;38.60;18.23;;;;;;;-0.61;100.00;97608.28;5013902;28;20285;-80
2021/01/27 06:28:16;;;;;;;38.72;17.60;;;;;;;-0.53;100.00;97617.69;5029545;28;20527;-80
2021/01/27 06:30:51;;;;;;;34.72;17.00;;;;;;;-0.53;100.00;97623.00;5011906;28;20041;-80
2021/01/27 06:33:27;;;;;;;36.22;16.90;;;;;;;-0.52;100.00;97620.13;5032916;28;20064;-80
2021/01/27 06:36:05;;;;;;;41.05;18.55;;;;;;;-0.49;100.00;97627.56;5033352;28;20129;-80
2021/01/27 06:38:47;;;;;;;38.33;18.35;;;;;;;-0.50;100.00;97623.31;5034055;28;20050;-79
2021/01/27 06:41:40;;;;;;;34.83;17.88;;;;;;;-0.51;100.00;97629.69;5033305;28;20124;-80
2021/01/27 06:44:37;;;;;;;39.42;19.08;;;;;;;-0.49;100.00;97638.22;5033683;28;20041;-79
2021/01/27 06:47:22;;;;;;;37.33;18.23;;;;;;;-0.48;100.00;97628.38;5014890;28;20046;-79
2021/01/27 06:50:01;;;;;;;43.97;19.73;;;;;;;-0.50;100.00;97639.28;5033553;28;20049;-81
2021/01/27 06:52:43;;;;;;;42.20;20.45;;;;;;;-0.55;100.00;97625.09;5032902;28;20054;-79
2021/01/27 06:55:21;;;;;;;43.92;21.40;;;;;;;-0.52;100.00;97633.41;5031778;28;20080;-79
2021/01/27 06:58:15;;;;;;;48.30;21.48;;;;;;;-0.51;100.00;97626.22;5014121;28;20072;-79
2021/01/27 07:01:10;;;;;;;45.08;22.13;;;;;;;-0.46;100.00;97644.91;5032291;28;20050;-79
2021/01/27 07:03:50;;;;;;;48.85;22.02;;;;;;;-0.47;100.00;97638.78;5014339;28;20050;-79
2021/01/27 07:06:49;;;;;;;43.63;21.50;;;;;;;-0.43;100.00;97629.28;5032299;28;20033;-80
2021/01/27 07:09:41;;;;;;;43.38;21.17;;;;;;;-0.39;100.00;97630.41;5022183;28;20141;-81
2021/01/27 07:12:29;;;;;;;40.50;19.30;;;;;;;-0.41;100.00;97616.53;5036513;28;20052;-81
2021/01/27 07:14:56;;;;;;;42.30;20.42;;;;;;;-0.42;100.00;97619.44;5033945;28;20340;-78
2021/01/27 07:18:00;;;;;;;37.15;18.80;;;;;;;-0.55;100.00;97593.19;5032907;28;20064;-81
2021/01/27 07:20:39;;;;;;;39.97;18.55;;;;;;;-0.48;100.00;97602.63;5033415;28;20116;-81
2021/01/27 07:23:15;;;;;;;38.08;18.67;;;;;;;-0.58;100.00;97604.31;5034704;28;20167;-81
2021/01/27 07:25:56;;;;;;;38.63;17.27;;;;;;;-0.70;100.00;97602.56;5035466;28;20048;-82
2021/01/27 07:28:56;;;;;;;37.05;16.73;;;;;;;-0.70;100.00;97607.09;5017136;28;20137;-81
2021/01/27 07:31:32;;;;;;;33.55;15.43;;;;;;;-0.77;100.00;97609.09;5034660;28;20084;-80
2021/01/27 07:34:43;;;;;;;33.95;16.42;;;;;;;-0.82;100.00;97607.16;5016875;28;20177;-80
2021/01/27 07:37:14;;;;;;;33.20;15.95;;;;;;;-0.87;100.00;97591.16;5033163;28;20038;-81
2021/01/27 07:39:56;;;;;;;33.50;16.25;;;;;;;-0.90;100.00;97614.72;5034195;28;20042;-81
2021/01/27 07:42:58;;;;;;;33.15;16.95;;;;;;;-1.01;100.00;97608.47;5033514;28;20057;-78
2021/01/27 07:45:35;;;;;;;35.15;16.98;;;;;;;-1.03;100.00;97621.19;5012634;28;20049;-82
2021/01/27 07:48:08;;;;;;;34.83;16.67;;;;;;;-1.09;100.00;97603.56;5015087;28;20529;-78
2021/01/27 07:50:36;;;;;;;31.98;16.63;;;;;;;-1.18;100.00;97598.88;5024544;28;20077;-84
2021/01/27 07:53:24;;;;;;;32.35;17.15;;;;;;;-1.13;100.00;97622.84;4998136;28;20045;-80
2021/01/27 07:55:58;;;;;;;34.80;16.58;;;;;;;-1.14;100.00;97615.94;5020402;28;20071;-79
2021/01/27 07:58:36;;;;;;;38.42;17.23;;;;;;;-1.11;100.00;97612.81;5013284;28;20037;-80
2021/01/27 08:01:09;;;;;;;36.70;18.52;;;;;;;-1.01;100.00;97612.97;4995451;28;20046;-79
2021/01/27 08:03:42;;;;;;;33.55;16.92;;;;;;;-0.96;100.00;97623.69;5016658;28;20072;-78
2021/01/27 08:06:19;;;;;;;37.97;17.98;;;;;;;-0.94;100.00;97610.97;5012239;28;20123;-83
2021/01/27 08:08:49;;;;;;;34.20;17.02;;;;;;;-0.85;100.00;97607.66;4996589;28;20065;-82
2021/01/27 08:11:20;;;;;;;31.95;16.20;;;;;;;-0.77;100.00;97612.56;5017769;28;20049;-81
2021/01/27 08:13:50;;;;;;;29.70;14.70;;;;;;;-0.72;100.00;97606.50;5013659;28;20052;-82
2021/01/27 08:16:44;;;;;;;33.78;15.30;;;;;;;-0.57;100.00;97606.75;5014514;28;20517;-81
2021/01/27 08:19:11;;;;;;;30.88;14.75;;;;;;;-0.42;100.00;97619.44;5010746;28;20137;-81
2021/01/27 08:21:53;;;;;;;26.38;13.45;;;;;;;-0.33;100.00;97613.44;5013448;28;20448;-80
2021/01/27 08:24:37;;;;;;;29.63;12.73;;;;;;;-0.20;100.00;97605.09;5013752;28;20501;-81
2021/01/27 08:27:09;;;;;;;25.35;12.70;;;;;;;0.02;100.00;97609.63;5017310;28;20423;-81
2021/01/27 08:29:54;;;;;;;23.88;11.93;;;;;;;0.29;100.00;97613.13;5015965;28;20042;-80
2021/01/27 08:32:24;;;;;;;26.67;12.25;;;;;;;0.60;100.00;97609.72;4998810;28;20100;-79
2021/01/27 08:34:57;;;;;;;22.33;11.60;;;;;;;1.04;100.00;97613.88;5015562;28;20056;-81
2021/01/27 08:37:29;;;;;;;19.75;10.63;;;;;;;1.68;100.00;97611.91;5014338;28;20046;-81
2021/01/27 08:40:29;;;;;;;20.48;9.55;;;;;;;2.11;100.00;97588.63;5015249;28;20413;-83
2021/01/27 08:42:58;;;;;;;19.30;9.52;;;;;;;2.84;100.00;97582.13;4999005;28;20054;-81
2021/01/27 08:45:24;;;;;;;16.35;8.70;;;;;;;3.23;100.00;97585.84;5018341;28;20076;-81
2021/01/27 08:47:57;;;;;;;12.32;7.72;;;;;;;3.19;100.00;97579.44;4996841;28;20057;-80
2021/01/27 08:50:46;;;;;;;15.88;8.55;;;;;;;3.35;100.00;97582.91;5015802;28;20053;-82
2021/01/27 08:53:21;;;;;;;17.10;9.55;;;;;;;4.11;100.00;97578.94;5016595;28;20045;-80
2021/01/27 08:55:47;;;;;;;16.63;8.68;;;;;;;4.81;100.00;97577.72;5017047;28;20046;-79
2021/01/27 08:58:31;;;;;;;12.80;8.00;;;;;;;4.91;100.00;97564.25;5016100;28;20126;-80
2021/01/27 09:01:01;;;;;;;15.02;8.77;;;;;;;6.24;100.00;97568.03;5020884;28;20050;-79
2021/01/27 09:03:37;;;;;;;15.65;7.70;;;;;;;6.41;100.00;97562.16;5030078;28;20061;-79
2021/01/27 09:06:05;;;;;;;13.07;7.63;;;;;;;6.74;100.00;97569.22;5026682;28;20049;-78
2021/01/27 09:08:34;;;;;;;14.35;7.55;;;;;;;6.07;100.00;97563.13;5025641;28;20046;-78
2021/01/27 09:11:04;;;;;;;12.18;6.97;;;;;;;5.06;100.00;97559.84;5025273;28;20105;-78
2021/01/27 09:14:02;;;;;;;14.63;7.68;;;;;;;4.12;100.00;97542.22;5047936;23;20049;-81
2021/01/27 09:16:55;;;;;;;15.20;8.70;;;;;;;3.08;100.00;97553.75;5031612;28;20128;-79
2021/01/27 09:19:29;;;;;;;15.70;8.70;;;;;;;3.08;100.00;97554.56;5035569;28;20108;-80
2021/01/27 09:22:16;;;;;;;16.65;9.10;;;;;;;2.88;100.00;97562.59;5001182;28;20060;-80
2021/01/27 09:24:45;;;;;;;16.42;9.57;;;;;;;3.45;100.00;97558.81;5027882;28;20045;-80
2021/01/27 09:27:33;;;;;;;17.75;9.00;;;;;;;2.99;100.00;97555.38;5052944;28;20168;-79
2021/01/27 09:30:35;;;;;;;13.43;8.02;;;;;;;2.66;100.00;97550.56;5003409;28;20068;-79
2021/01/27 09:33:15;;;;;;;16.00;8.45;;;;;;;3.00;100.00;97559.66;5019190;28;20053;-79
2021/01/27 09:35:45;;;;;;;18.85;8.77;;;;;;;3.13;100.00;97562.59;5019160;28;20096;-79
2021/01/27 09:38:23;;;;;;;12.73;7.65;;;;;;;2.80;100.00;97556.97;5035959;28;20104;-81
2021/01/27 09:41:05;;;;;;;11.95;7.18;;;;;;;2.59;100.00;97542.78;5019184;28;20582;-82
2021/01/27 09:43:46;;;;;;;15.38;7.10;;;;;;;2.76;100.00;97558.59;5016821;28;20041;-79
2021/01/27 09:46:17;;;;;;;12.75;7.28;;;;;;;2.86;100.00;97550.56;5015837;28;20132;-77
2021/01/27 09:48:47;;;;;;;14.85;6.70;;;;;;;2.55;100.00;97555.09;5004340;28;20413;-80
2021/01/27 09:51:15;;;;;;;14.73;6.85;;;;;;;2.66;100.00;97559.34;5018500;28;20061;-81
2021/01/27 09:53:44;;;;;;;12.57;6.70;;;;;;;2.79;100.00;97542.00;5018371;28;20056;-81
2021/01/27 09:56:16;;;;;;;11.95;7.07;;;;;;;2.80;100.00;97556.97;5036302;28;20076;-80
2021/01/27 09:58:46;;;;;;;10.50;6.47;;;;;;;3.74;100.00;97551.78;5018996;28;20053;-81
2021/01/27 10:01:25;;;;;;;9.07;6.07;;;;;;;4.78;100.00;97545.28;5010292;28;20380;-79
2021/01/27 10:04:07;;;;;;;10.50;6.45;;;;;;;5.16;100.00;97551.72;5015863;28;20045;-77
2021/01/27 10:07:03;;;;;;;12.50;5.50;;;;;;;4.71;100.00;97551.00;5014459;28;20037;-78
2021/01/27 10:09:32;;;;;;;12.30;5.57;;;;;;;4.78;100.00;97550.66;5030834;28;20548;-77
2021/01/27 10:12:07;;;;;;;11.82;5.40;;;;;;;4.81;100.00;97542.88;5029909;28;20404;-77
2021/01/27 10:14:37;;;;;;;9.40;5.10;;;;;;;4.73;100.00;97548.81;5016335;28;20241;-79
2021/01/27 10:17:07;;;;;;;8.07;5.07;;;;;;;5.11;100.00;97538.34;5016296;28;20045;-77
2021/01/27 10:19:51;;;;;;;9.95;5.45;;;;;;;5.18;100.00;97538.81;5022560;28;20564;-78
2021/01/27 10:22:30;;;;;;;10.35;5.60;;;;;;;4.72;100.00;97535.72;5017562;28;20073;-77
2021/01/27 10:25:03;;;;;;;8.23;5.22;;;;;;;5.37;100.00;97528.94;4980067;28;20490;-77
2021/01/27 10:27:32;;;;;;;7.85;5.32;;;;;;;5.53;100.00;97531.22;5014030;28;20052;-78
2021/01/27 10:30:05;;;;;;;11.63;5.05;;;;;;;5.74;100.00;97541.72;5022431;28;20048;-78
2021/01/27 10:32:31;;;;;;;8.68;4.93;;;;;;;6.15;100.00;97532.13;5030348;28;20442;-79
2021/01/27 10:34:58;;;;;;;7.38;4.60;;;;;;;6.26;100.00;97512.91;5016728;28;20072;-77
2021/01/27 10:37:33;;;;;;;8.95;5.03;;;;;;;6.36;100.00;97511.13;5036893;28;20041;-79
2021/01/27 10:40:18;;;;;;;6.70;4.00;;;;;;;6.02;100.00;97516.69;5036045;28;20073;-79
2021/01/27 10:42:59;;;;;;;10.75;4.85;;;;;;;6.53;100.00;97498.78;5014190;28;20045;-79
2021/01/27 10:45:31;;;;;;;7.28;4.40;;;;;;;6.66;100.00;97505.31;5030681;28;20061;-77
2021/01/27 10:47:59;;;;;;;7.93;4.75;;;;;;;6.20;100.00;97500.59;4997414;28;20041;-77
2021/01/27 10:50:28;;;;;;;7.72;3.90;;;;;;;6.35;100.00;97494.19;5014016;28;20083;-78
2021/01/27 10:53:03;;;;;;;9.13;4.60;;;;;;;6.43;100.00;97488.16;5019240;28;20053;-78
2021/01/27 10:55:35;;;;;;;9.85;4.72;;;;;;;5.88;100.00;97499.69;5023430;28;20068;-79
2021/01/27 10:58:13;;;;;;;7.35;4.30;;;;;;;6.41;100.00;97487.66;5022019;28;20054;-79
2021/01/27 11:00:41;;;;;;;7.38;4.32;;;;;;;5.95;100.00;97494.75;5017518;28;20117;-78
2021/01/27 11:03:08;;;;;;;11.98;4.85;;;;;;;5.85;100.00;97492.22;5019734;28;20116;-78
2021/01/27 11:05:35;;;;;;;11.35;4.97;;;;;;;6.41;100.00;97482.28;5019249;28;20045;-77
2021/01/27 11:08:04;;;;;;;7.40;4.82;;;;;;;7.88;100.00;97491.28;5016708;28;20076;-77
2021/01/27 11:10:31;;;;;;;8.40;4.35;;;;;;;8.07;91.93;97478.47;4999340;28;20201;-77
2021/01/27 11:12:57;;;;;;;7.85;4.57;;;;;;;7.94;89.91;97487.38;5032614;28;20079;-79
2021/01/27 11:15:24;;;;;;;9.00;4.80;;;;;;;7.80;85.03;97482.00;5014984;28;20046;-78
2021/01/27 11:17:51;;;;;;;12.23;4.95;;;;;;;7.35;99.09;97472.94;5014486;28;20060;-79
2021/01/27 11:20:20;;;;;;;8.55;4.80;;;;;;;7.91;83.39;97475.31;5014047;28;20056;-78
2021/01/27 11:22:46;;;;;;;15.32;4.93;;;;;;;8.02;83.85;97462.41;5014017;28;20412;-78
2021/01/27 11:25:18;;;;;;;10.73;5.30;;;;;;;7.46;89.82;97468.91;5014322;28;20041;-78
2021/01/27 11:27:45;;;;;;;10.25;4.88;;;;;;;7.28;84.24;97464.41;5030699;28;20132;-78
2021/01/27 11:30:13;;;;;;;9.60;4.70;;;;;;;7.33;94.16;97456.25;4997373;28;20049;-78
2021/01/27 11:32:40;;;;;;;8.25;5.20;;;;;;;5.43;100.00;97455.34;5039195;28;20053;-77
2021/01/27 11:35:08;;;;;;;9.65;5.03;;;;;;;5.79;100.00;97453.03;5013519;28;20041;-77
2021/01/27 11:37:34;;;;;;;9.82;5.43;;;;;;;5.85;100.00;97446.53;5030262;28;20041;-77
2021/01/27 11:40:01;;;;;;;12.55;5.35;;;;;;;6.01;100.00;97443.34;5012941;28;20046;-77
2021/01/27 11:42:27;;;;;;;11.35;5.38;;;;;;;5.99;100.00;97426.72;5009503;28;20055;-77
2021/01/27 11:44:54;;;;;;;9.80;5.60;;;;;;;5.59;100.00;97432.63;5012514;28;20053;-78
2021/01/27 11:47:23;;;;;;;10.07;5.28;;;;;;;5.73;100.00;97433.50;5012407;28;20493;-79
2021/01/27 11:49:50;;;;;;;9.43;5.25;;;;;;;5.42;100.00;97424.25;5032422;28;20547;-79
2021/01/27 11:52:17;;;;;;;9.60;4.93;;;;;;;4.92;100.00;97434.44;5014175;28;20141;-78
2021/01/27 11:54:43;;;;;;;13.18;5.57;;;;;;;4.63;100.00;97433.63;5014795;28;20121;-77